Ardabil, Iran
Current Conditions -  °F | °C
As of 6:50 PM on Friday 24 Oct 2014 (Local Time) from OITL Reporting Station
Clear Clear  
Wind Chill: 50°   Ceiling: Unl
Heat Index: 50°   Visibility: 6mi
Dew Point: 45°   Wind: 12mph
Humidity: 82%   Direction: 70°ENE
Pressure: 30.09"   Gusts: NA
Location:  38.25°N, 48.29°E
Report Text: OITL 241550Z 07010KT CAVOK 10/07 Q1019
Loading
Personal Weather Stations






























Interactive Weather Map
Tropical Storm Tracking
New forecast layout! Learn more

10-Day Weather Forecast

Advertisements
Track Severe Weather on mobile